Time;durP1;ratioP1;P1;durP2;ratioP2;P2;SDS_P1;SDS_P2;PMS_P1;PMS_P2;Temp;Humidity;BMP_temperature;BMP_pressure;BME280_temperature;BME280_humidity;BME280_pressure;Samples;Min_cycle;Max_cycle;Signal;HPM_P1;HPM_P2
2022/12/26 00:01:37;;;;;;;40.72;10.93;;;8.40;99.90;;;;;;5010845;28;20041;-89
2022/12/26 00:04:03;;;;;;;42.63;11.57;;;8.40;99.90;;;;;;5002347;28;20360;-90
2022/12/26 00:06:30;;;;;;;41.50;11.23;;;8.40;99.90;;;;;;4992992;28;20049;-89
2022/12/26 00:08:56;;;;;;;33.38;9.93;;;8.40;99.90;;;;;;5001574;28;20471;-89
2022/12/26 00:11:23;;;;;;;38.05;11.00;;;8.30;99.90;;;;;;5007772;28;20034;-90
2022/12/26 00:13:56;;;;;;;;;;;8.40;99.90;;;;;;4988169;28;20041;-89
2022/12/26 00:16:23;;;;;;;37.72;11.30;;;8.40;99.90;;;;;;5021267;28;19974;-89
2022/12/26 00:18:49;;;;;;;37.28;9.68;;;8.40;99.90;;;;;;5006702;28;20037;-89
2022/12/26 00:21:17;;;;;;;39.50;11.43;;;8.40;99.90;;;;;;4994357;28;20040;-88
2022/12/26 00:23:43;;;;;;;39.20;10.38;;;8.30;99.90;;;;;;5021537;28;20051;-88
2022/12/26 00:26:20;;;;;;;36.53;10.55;;;8.40;99.90;;;;;;4985305;28;20037;-88
2022/12/26 00:28:46;;;;;;;43.25;10.85;;;8.40;99.90;;;;;;5008475;28;20372;-88
2022/12/26 00:31:18;;;;;;;29.20;9.65;;;8.40;99.90;;;;;;4993677;28;20060;-88
2022/12/26 00:33:44;;;;;;;39.28;11.52;;;8.40;99.90;;;;;;5001615;28;20512;-89
2022/12/26 00:36:13;;;;;;;40.75;11.65;;;8.40;99.90;;;;;;4991609;28;20052;-88
2022/12/26 00:38:40;;;;;;;35.47;10.80;;;8.40;99.90;;;;;;5005942;28;20052;-89
2022/12/26 00:41:07;;;;;;;36.10;11.00;;;8.40;99.90;;;;;;5020857;28;20037;-88
2022/12/26 00:43:33;;;;;;;35.47;10.95;;;8.40;99.90;;;;;;5015765;28;20149;-88
2022/12/26 00:45:59;;;;;;;35.75;10.48;;;8.40;99.90;;;;;;5010557;28;20115;-89
2022/12/26 00:48:24;;;;;;;37.00;11.55;;;8.40;99.90;;;;;;4974093;28;20041;-90
2022/12/26 00:50:51;;;;;;;42.22;10.63;;;8.40;99.90;;;;;;4988038;28;20057;-88
2022/12/26 00:53:17;;;;;;;40.15;11.48;;;8.40;99.90;;;;;;5016647;28;20049;-89
2022/12/26 00:55:43;;;;;;;;;;;8.40;99.90;;;;;;5008370;28;20112;-88
2022/12/26 00:58:08;;;;;;;37.90;11.88;;;8.40;99.90;;;;;;5006868;28;20286;-89
2022/12/26 01:00:35;;;;;;;41.08;11.07;;;8.40;99.90;;;;;;5002008;28;20036;-89
2022/12/26 01:03:02;;;;;;;;;;;8.40;99.90;;;;;;4987809;28;20038;-89
2022/12/26 01:05:27;;;;;;;48.67;11.50;;;8.40;99.90;;;;;;5001583;28;20373;-88
2022/12/26 01:07:54;;;;;;;39.33;10.88;;;8.40;99.90;;;;;;4984357;28;20037;-89
2022/12/26 01:10:19;;;;;;;48.25;12.93;;;8.50;99.90;;;;;;4990786;28;20041;-89
2022/12/26 01:12:45;;;;;;;40.10;11.18;;;8.40;99.90;;;;;;4967567;28;20120;-90
2022/12/26 01:15:11;;;;;;;50.87;12.57;;;8.40;99.90;;;;;;4988524;28;20072;-90
2022/12/26 01:17:36;;;;;;;51.22;13.32;;;8.40;99.90;;;;;;4976769;28;20148;-89
2022/12/26 01:20:03;;;;;;;54.42;12.20;;;8.80;99.90;;;;;;4991508;28;20045;-88
2022/12/26 01:22:28;;;;;;;;;;;8.50;99.90;;;;;;4985479;28;20057;-89
2022/12/26 01:24:56;;;;;;;58.50;13.63;;;8.40;99.90;;;;;;5010511;28;19917;-88
2022/12/26 01:27:23;;;;;;;42.78;12.27;;;8.50;99.90;;;;;;5017752;28;20083;-89
2022/12/26 01:29:49;;;;;;;49.67;13.27;;;8.50;99.90;;;;;;5000027;28;20042;-89
2022/12/26 01:32:15;;;;;;;;;;;8.50;99.90;;;;;;5015263;28;20042;-89
2022/12/26 01:34:41;;;;;;;37.53;10.68;;;8.50;99.90;;;;;;5000204;28;19925;-88
2022/12/26 01:37:06;;;;;;;50.25;12.65;;;8.40;99.90;;;;;;5025054;28;20063;-89
2022/12/26 01:39:32;;;;;;;47.15;11.95;;;8.40;99.90;;;;;;5001624;28;20042;-89
2022/12/26 01:41:58;;;;;;;51.13;12.90;;;8.50;99.90;;;;;;4994747;28;20041;-89
2022/12/26 01:45:01;;;;;;;47.10;12.27;;;8.50;99.90;;;;;;4987197;28;20038;-88
2022/12/26 01:47:39;;;;;;;42.13;12.05;;;8.50;99.90;;;;;;5005779;28;20052;-89
2022/12/26 01:50:11;;;;;;;46.35;13.30;;;8.50;99.90;;;;;;4996132;28;20085;-88
2022/12/26 01:52:43;;;;;;;48.58;12.55;;;8.60;99.90;;;;;;5021362;28;20116;-88
2022/12/26 01:55:12;;;;;;;47.97;13.23;;;8.60;99.90;;;;;;5031471;28;20034;-88
2022/12/26 01:57:45;;;;;;;40.67;11.82;;;8.50;99.90;;;;;;5006255;28;20041;-88
2022/12/26 02:00:12;;;;;;;38.85;11.55;;;8.60;99.90;;;;;;5003080;28;20038;-88
2022/12/26 02:05:33;;;;;;;42.40;12.50;;;8.50;99.90;;;;;;5004958;28;20056;-87
2022/12/26 02:08:13;;;;;;;41.05;11.70;;;8.50;99.90;;;;;;5006950;28;20553;-87
2022/12/26 02:10:52;;;;;;;36.15;11.05;;;8.60;99.90;;;;;;5011416;28;20049;-87
2022/12/26 02:13:19;;;;;;;35.28;10.48;;;8.50;99.90;;;;;;5020144;28;20048;-87
2022/12/26 02:15:45;;;;;;;;;;;8.50;99.90;;;;;;5023587;28;20053;-87
2022/12/26 02:18:11;;;;;;;37.25;10.75;;;8.60;99.90;;;;;;5021682;28;19963;-87
2022/12/26 02:21:02;;;;;;;34.90;10.05;;;8.50;99.90;;;;;;5003361;28;20443;-86
2022/12/26 02:23:46;;;;;;;33.88;10.32;;;8.50;99.90;;;;;;5022739;28;20089;-86
2022/12/26 02:26:41;;;;;;;38.03;11.20;;;8.50;99.90;;;;;;5003120;28;20128;-86
2022/12/26 02:29:31;;;;;;;40.22;11.32;;;8.50;99.90;;;;;;5007441;28;20038;-86
2022/12/26 02:32:00;;;;;;;34.50;9.85;;;8.50;99.90;;;;;;5018841;28;20034;-86
2022/12/26 02:34:34;;;;;;;36.42;9.93;;;8.50;99.90;;;;;;5013990;28;20081;-86
2022/12/26 02:37:12;;;;;;;38.78;11.20;;;8.50;99.90;;;;;;5011513;28;20034;-86
2022/12/26 02:39:38;;;;;;;38.47;10.73;;;8.60;99.90;;;;;;5009899;28;20114;-86
2022/12/26 02:42:18;;;;;;;32.50;10.50;;;8.50;99.90;;;;;;5006129;28;20116;-86
2022/12/26 02:48:18;;;;;;;25.30;8.02;;;8.50;99.90;;;;;;5027551;28;20041;-87
2022/12/26 03:15:25;;;;;;;27.65;11.18;;;8.60;99.90;;;;;;5027527;28;20153;-87
2022/12/26 03:18:04;;;;;;;29.48;11.27;;;8.60;99.90;;;;;;5024973;28;20037;-88
2022/12/26 03:20:33;;;;;;;30.85;12.27;;;8.60;99.90;;;;;;5007425;28;20505;-87
2022/12/26 03:23:05;;;;;;;30.55;12.82;;;8.60;99.90;;;;;;5006972;28;20509;-87
2022/12/26 03:28:26;;;;;;;35.97;14.82;;;8.90;99.90;;;;;;5015673;28;20144;-88
2022/12/26 03:30:52;;;;;;;;;;;8.60;99.90;;;;;;5005059;28;20033;-88
2022/12/26 03:36:10;;;;;;;35.00;13.75;;;8.70;99.90;;;;;;5020164;28;20494;-88
2022/12/26 03:39:06;;;;;;;37.22;14.85;;;8.80;99.90;;;;;;5004236;28;20044;-88
2022/12/26 04:19:57;;;;;;;35.20;14.48;;;8.90;99.90;;;;;;5017502;28;20038;-88
2022/12/26 04:46:02;;;;;;;34.78;13.73;;;9.00;99.90;;;;;;5022558;28;20037;-88
2022/12/26 04:51:12;;;;;;;30.65;13.23;;;9.00;99.90;;;;;;4992282;28;20084;-88
2022/12/26 04:53:41;;;;;;;30.50;12.95;;;8.90;99.90;;;;;;4970855;28;20042;-89
2022/12/26 04:56:08;;;;;;;32.88;14.73;;;9.00;99.90;;;;;;5006215;28;20128;-88
2022/12/26 04:58:34;;;;;;;33.53;14.30;;;9.00;99.90;;;;;;4991090;28;20041;-87
2022/12/26 05:09:35;;;;;;;36.25;15.70;;;9.10;99.90;;;;;;5000229;28;20050;-88
2022/12/26 05:12:07;;;;;;;32.35;13.70;;;9.10;99.90;;;;;;5022309;28;20049;-88
2022/12/26 05:14:34;;;;;;;30.73;13.43;;;9.00;99.90;;;;;;5007406;28;20053;-88
2022/12/26 05:30:55;;;;;;;28.23;12.90;;;9.00;99.90;;;;;;5021934;28;20076;-88
2022/12/26 05:36:05;;;;;;;31.17;14.13;;;9.00;99.90;;;;;;5012978;28;20516;-88
2022/12/26 05:38:31;;;;;;;26.70;13.13;;;8.90;99.90;;;;;;4972162;28;20033;-88
2022/12/26 05:40:57;;;;;;;31.08;14.05;;;8.90;99.90;;;;;;5012351;28;20076;-88
2022/12/26 05:43:23;;;;;;;28.50;12.70;;;8.90;99.90;;;;;;4973968;28;20046;-88
2022/12/26 05:45:48;;;;;;;29.42;13.77;;;8.90;99.90;;;;;;4970588;28;20374;-88
2022/12/26 05:48:14;;;;;;;27.63;12.05;;;8.80;99.90;;;;;;5005034;28;20045;-88
2022/12/26 05:50:40;;;;;;;35.40;15.10;;;8.80;99.90;;;;;;4969598;28;20038;-88
2022/12/26 05:53:05;;;;;;;26.08;12.77;;;8.80;99.90;;;;;;4990662;28;20026;-88
2022/12/26 05:55:31;;;;;;;25.90;13.45;;;8.90;99.90;;;;;;5002766;28;20034;-88
2022/12/26 05:57:59;;;;;;;23.47;12.73;;;8.90;99.90;;;;;;4967996;28;20173;-89
2022/12/26 06:00:26;;;;;;;24.83;12.48;;;8.80;99.90;;;;;;5008777;28;20423;-88
2022/12/26 06:02:55;;;;;;;19.20;11.05;;;8.80;99.90;;;;;;5020339;28;20508;-88
2022/12/26 06:05:21;;;;;;;27.75;13.93;;;9.00;99.90;;;;;;4997329;28;20049;-88
2022/12/26 06:07:47;;;;;;;28.25;13.15;;;8.90;99.90;;;;;;5001260;28;20686;-88
2022/12/26 06:10:13;;;;;;;25.65;13.45;;;8.90;99.90;;;;;;5006631;28;20040;-88
2022/12/26 06:12:39;;;;;;;26.63;13.63;;;9.00;99.90;;;;;;4996596;28;20046;-89
2022/12/26 06:15:05;;;;;;;27.83;13.38;;;9.00;99.90;;;;;;5019602;28;20064;-89
2022/12/26 06:17:31;;;;;;;23.92;11.55;;;9.00;99.90;;;;;;5008556;28;20041;-88
2022/12/26 06:19:56;;;;;;;22.33;11.75;;;9.00;99.90;;;;;;4989509;28;20374;-88
2022/12/26 06:22:22;;;;;;;23.38;12.35;;;9.00;99.90;;;;;;4989327;28;20069;-89
2022/12/26 06:24:48;;;;;;;24.73;12.48;;;9.00;99.90;;;;;;5019323;28;20054;-88
2022/12/26 06:27:14;;;;;;;24.08;12.57;;;9.00;99.90;;;;;;5007290;28;20398;-89
2022/12/26 06:29:39;;;;;;;24.15;12.85;;;9.00;99.90;;;;;;4986438;28;20038;-88
2022/12/26 06:32:05;;;;;;;20.87;10.67;;;9.00;99.90;;;;;;4976745;28;20045;-88
2022/12/26 06:34:31;;;;;;;19.90;11.20;;;9.10;99.90;;;;;;4996209;28;20132;-88
2022/12/26 06:36:57;;;;;;;18.40;9.98;;;9.10;99.90;;;;;;4996553;28;20087;-89
2022/12/26 06:39:23;;;;;;;24.70;12.40;;;9.10;99.90;;;;;;5024347;28;20034;-88
2022/12/26 06:41:49;;;;;;;;;;;9.10;99.90;;;;;;4977229;28;20638;-88
2022/12/26 06:44:15;;;;;;;21.63;11.30;;;9.10;99.90;;;;;;5024058;28;19920;-88
2022/12/26 06:46:40;;;;;;;20.63;10.88;;;10.20;99.90;;;;;;5002818;28;20526;-89
2022/12/26 06:49:06;;;;;;;20.52;10.38;;;9.10;99.90;;;;;;5004941;28;20034;-88
2022/12/26 06:51:32;;;;;;;23.42;11.07;;;9.10;99.90;;;;;;5018117;28;20030;-89
2022/12/26 06:54:01;;;;;;;22.63;11.18;;;9.10;99.90;;;;;;5007918;28;20040;-89
2022/12/26 06:56:28;;;;;;;18.50;9.52;;;9.10;99.90;;;;;;5001193;28;20041;-88
2022/12/26 06:58:55;;;;;;;19.90;9.35;;;9.10;99.90;;;;;;4995254;28;20037;-88
2022/12/26 07:01:22;;;;;;;20.13;9.48;;;9.10;99.90;;;;;;5012546;28;20397;-88
2022/12/26 07:03:47;;;;;;;;;;;9.10;99.90;;;;;;5005586;28;20436;-88
2022/12/26 07:06:41;;;;;;;19.92;9.35;;;9.10;99.90;;;;;;5006717;28;19928;-88
2022/12/26 07:09:13;;;;;;;19.35;10.90;;;9.10;99.90;;;;;;5022192;28;20466;-89
2022/12/26 07:11:41;;;;;;;18.90;10.27;;;9.10;99.90;;;;;;4998370;28;20041;-88
2022/12/26 07:14:07;;;;;;;19.75;9.68;;;9.10;99.90;;;;;;5023023;28;20489;-88
2022/12/26 07:16:36;;;;;;;;;;;9.10;99.90;;;;;;5006481;28;20479;-89
2022/12/26 07:19:03;;;;;;;19.70;10.68;;;9.10;99.90;;;;;;5014530;28;19916;-88
2022/12/26 07:21:29;;;;;;;19.42;10.15;;;9.10;99.90;;;;;;5006191;28;20041;-88
2022/12/26 07:23:55;;;;;;;18.25;9.43;;;9.10;99.90;;;;;;4992866;28;20056;-88
2022/12/26 07:26:22;;;;;;;17.48;7.65;;;9.10;99.90;;;;;;5008823;28;20510;-88
2022/12/26 07:28:48;;;;;;;16.17;9.15;;;9.20;99.90;;;;;;5010589;28;20061;-88
2022/12/26 07:31:16;;;;;;;15.85;7.70;;;9.20;99.90;;;;;;5008871;28;20126;-88
2022/12/26 07:33:42;;;;;;;14.00;9.02;;;9.20;99.90;;;;;;5006474;28;20088;-88
2022/12/26 07:36:08;;;;;;;16.13;8.55;;;9.20;99.90;;;;;;5010755;28;20438;-88
2022/12/26 07:38:34;;;;;;;13.23;7.80;;;9.20;99.90;;;;;;5009525;28;20104;-88
2022/12/26 07:41:56;;;;;;;18.65;8.18;;;9.20;99.90;;;;;;5006658;28;20046;-88
2022/12/26 07:43:45;;;;;;;14.35;7.47;;;9.20;99.90;;;;;;5010198;28;20033;-89
2022/12/26 07:46:11;;;;;;;13.83;7.47;;;9.10;99.90;;;;;;5016565;28;20041;-88
2022/12/26 07:48:37;;;;;;;15.57;7.87;;;9.10;99.90;;;;;;4989782;28;20753;-88
2022/12/26 07:51:02;;;;;;;13.93;8.10;;;9.10;99.90;;;;;;4997120;28;20448;-89
2022/12/26 07:53:28;;;;;;;14.38;8.20;;;9.00;99.90;;;;;;4989730;28;20069;-88
2022/12/26 07:55:58;;;;;;;13.98;7.75;;;9.00;99.90;;;;;;4992139;28;20052;-89
2022/12/26 07:58:24;;;;;;;15.98;8.27;;;9.00;99.90;;;;;;4990615;28;20035;-88
2022/12/26 08:00:50;;;;;;;12.75;7.68;;;9.00;99.90;;;;;;5008871;28;20084;-89
2022/12/26 08:03:15;;;;;;;15.57;7.95;;;9.10;99.90;;;;;;5004828;28;20042;-89
2022/12/26 08:05:44;;;;;;;14.20;7.18;;;9.10;99.90;;;;;;4989417;28;20038;-89
2022/12/26 08:08:10;;;;;;;13.57;7.07;;;9.00;99.90;;;;;;4993147;28;20037;-88
2022/12/26 08:10:36;;;;;;;12.32;6.43;;;9.00;99.90;;;;;;5007399;28;20034;-88
2022/12/26 08:13:02;;;;;;;16.05;6.20;;;9.00;99.90;;;;;;4981359;28;20545;-88
2022/12/26 08:15:27;;;;;;;14.25;6.60;;;9.00;99.90;;;;;;4988736;28;20069;-88
2022/12/26 08:17:53;;;;;;;11.00;7.07;;;9.10;99.90;;;;;;5012474;28;20072;-88
2022/12/26 08:20:19;;;;;;;10.90;6.65;;;9.20;99.90;;;;;;5009595;28;20048;-87
2022/12/26 08:22:44;;;;;;;10.00;6.53;;;9.10;99.90;;;;;;5024418;28;20048;-87
2022/12/26 08:25:10;;;;;;;12.02;6.38;;;9.20;99.90;;;;;;4996283;28;20091;-87
2022/12/26 08:27:36;;;;;;;10.18;5.18;;;9.20;99.90;;;;;;4993381;28;20042;-88
2022/12/26 08:30:02;;;;;;;9.73;5.60;;;9.20;99.90;;;;;;4988838;28;20069;-89
2022/12/26 08:32:28;;;;;;;14.40;6.03;;;9.30;99.90;;;;;;4985407;28;20394;-85
2022/12/26 08:34:53;;;;;;;8.83;5.60;;;9.30;99.90;;;;;;5023477;28;20034;-86
2022/12/26 08:37:19;;;;;;;12.90;6.03;;;9.30;99.90;;;;;;4998407;28;20277;-86
2022/12/26 08:39:45;;;;;;;10.93;5.45;;;9.30;99.90;;;;;;5021148;28;20354;-86
2022/12/26 08:42:10;;;;;;;11.05;6.10;;;9.40;99.90;;;;;;5010318;28;20045;-85
2022/12/26 08:44:36;;;;;;;10.63;5.20;;;9.40;99.90;;;;;;5003370;28;20021;-84
2022/12/26 08:47:02;;;;;;;8.47;5.07;;;9.30;99.90;;;;;;5023973;28;20351;-85
2022/12/26 08:49:27;;;;;;;9.32;5.13;;;9.40;99.90;;;;;;5016513;28;20117;-85
2022/12/26 08:51:53;;;;;;;12.68;5.25;;;9.40;99.90;;;;;;5000121;28;20113;-84
2022/12/26 08:54:19;;;;;;;12.60;6.23;;;9.40;99.90;;;;;;5015497;28;20033;-85
2022/12/26 08:56:44;;;;;;;10.27;5.60;;;9.30;99.90;;;;;;5016391;28;20345;-87
2022/12/26 08:59:10;;;;;;;10.75;5.82;;;9.30;99.90;;;;;;5004663;28;20289;-87
2022/12/26 09:01:37;;;;;;;11.90;6.43;;;9.30;99.90;;;;;;5004930;28;20037;-88
2022/12/26 09:04:05;;;;;;;13.07;5.97;;;9.30;99.90;;;;;;4989160;28;20045;-87
2022/12/26 09:06:32;;;;;;;15.35;6.60;;;9.20;99.90;;;;;;4987954;28;20038;-86
2022/12/26 09:08:59;;;;;;;9.13;5.82;;;9.20;99.90;;;;;;5002915;28;20065;-87
2022/12/26 09:11:25;;;;;;;15.65;6.55;;;9.10;99.90;;;;;;5020390;28;20041;-86
2022/12/26 09:13:52;;;;;;;14.02;6.55;;;9.20;99.90;;;;;;5020308;28;20486;-89
2022/12/26 09:16:21;;;;;;;13.07;8.32;;;9.10;99.90;;;;;;5003083;28;20065;-87
2022/12/26 09:18:48;;;;;;;13.98;6.60;;;9.10;99.90;;;;;;5032446;28;20045;-88
2022/12/26 09:21:15;;;;;;;14.50;7.20;;;9.00;99.90;;;;;;4998683;28;20037;-87
2022/12/26 09:23:41;;;;;;;15.07;7.18;;;9.00;99.90;;;;;;5025538;28;20045;-86
2022/12/26 09:26:07;;;;;;;;;;;9.00;99.90;;;;;;4989835;28;20180;-88
2022/12/26 09:28:33;;;;;;;12.82;6.80;;;8.90;99.90;;;;;;5028788;28;19964;-88
2022/12/26 09:31:00;;;;;;;9.82;5.47;;;8.90;99.90;;;;;;5026917;28;20051;-84
2022/12/26 09:33:25;;;;;;;11.88;6.68;;;9.00;99.90;;;;;;5002540;28;20048;-84
2022/12/26 09:35:51;;;;;;;13.20;6.77;;;9.00;99.90;;;;;;4988471;28;20211;-85
2022/12/26 09:38:17;;;;;;;12.73;5.43;;;9.00;99.90;;;;;;5020572;28;20637;-84
2022/12/26 09:41:16;;;;;;;14.23;5.37;;;9.00;99.90;;;;;;5025297;28;20299;-84
2022/12/26 09:44:16;;;;;;;7.57;4.50;;;9.00;99.90;;;;;;5015288;28;20284;-83
2022/12/26 09:46:50;;;;;;;9.95;3.60;;;9.00;99.90;;;;;;5016480;28;20410;-84
2022/12/26 09:49:33;;;;;;;8.07;3.05;;;9.00;99.90;;;;;;5006561;28;20125;-84
2022/12/26 09:52:04;;;;;;;9.80;2.88;;;9.00;99.90;;;;;;5024635;28;20112;-84
2022/12/26 09:54:47;;;;;;;13.85;2.92;;;9.00;99.90;;;;;;5004889;28;20033;-82
2022/12/26 09:57:27;;;;;;;10.15;2.40;;;8.80;99.90;;;;;;5004194;28;20042;-81
2022/12/26 10:00:00;;;;;;;9.20;1.45;;;8.70;99.90;;;;;;5019021;28;20504;-81
2022/12/26 10:02:26;;;;;;;4.70;1.30;;;8.40;99.90;;;;;;5023135;28;20112;-81
2022/12/26 10:04:53;;;;;;;10.63;1.30;;;8.20;99.90;;;;;;5020438;28;20184;-81
2022/12/26 10:07:39;;;;;;;9.38;1.90;;;8.20;99.90;;;;;;5003255;28;20045;-82
2022/12/26 10:10:08;;;;;;;9.27;1.65;;;8.10;99.90;;;;;;5007456;28;20075;-83
2022/12/26 10:12:47;;;;;;;6.25;1.25;;;8.10;99.90;;;;;;5023993;28;20030;-83
2022/12/26 10:15:28;;;;;;;10.10;1.52;;;8.10;99.90;;;;;;5023277;28;20046;-83
2022/12/26 10:17:57;;;;;;;9.77;1.52;;;8.00;99.90;;;;;;5021722;28;20062;-83
2022/12/26 10:20:28;;;;;;;7.00;1.40;;;8.10;99.90;;;;;;5020276;28;20034;-82
2022/12/26 10:23:08;;;;;;;9.13;2.22;;;8.10;99.90;;;;;;5021905;28;20044;-83
2022/12/26 10:25:37;;;;;;;12.68;2.05;;;8.20;99.90;;;;;;5017471;28;20037;-83
2022/12/26 10:28:04;;;;;;;6.72;1.23;;;8.40;99.90;;;;;;5009475;28;20064;-81
2022/12/26 10:30:38;;;;;;;10.18;1.63;;;8.50;99.90;;;;;;5025785;28;20554;-84
2022/12/26 10:33:13;;;;;;;11.73;2.10;;;8.40;99.90;;;;;;5007311;28;20494;-84
2022/12/26 10:35:45;;;;;;;7.03;1.20;;;8.30;99.90;;;;;;5002710;28;20074;-84
2022/12/26 10:38:15;;;;;;;13.60;2.22;;;8.30;99.90;;;;;;5010409;28;20497;-83
2022/12/26 10:40:45;;;;;;;13.73;1.70;;;8.10;99.90;;;;;;5002528;28;20038;-85
2022/12/26 10:43:27;;;;;;;10.55;2.00;;;8.10;99.90;;;;;;5015909;28;20798;-83
2022/12/26 10:46:15;;;;;;;7.97;1.27;;;8.00;99.90;;;;;;5012190;28;20038;-83
2022/12/26 10:48:41;;;;;;;8.80;1.00;;;8.00;99.90;;;;;;5016740;28;20045;-85
2022/12/26 10:51:08;;;;;;;8.20;1.35;;;7.90;99.90;;;;;;4988661;28;20034;-84
2022/12/26 10:53:39;;;;;;;8.57;1.17;;;7.80;99.90;;;;;;5022819;28;20042;-84
2022/12/26 10:56:06;;;;;;;8.38;1.30;;;7.70;99.90;;;;;;5013322;28;20037;-84
2022/12/26 10:58:34;;;;;;;7.95;1.10;;;7.60;99.90;;;;;;5021476;28;20131;-85
2022/12/26 11:01:33;;;;;;;4.30;0.82;;;7.50;99.90;;;;;;5013944;28;20831;-83
2022/12/26 11:04:02;;;;;;;5.95;1.00;;;7.40;99.90;;;;;;5022178;28;20052;-82
2022/12/26 11:06:32;;;;;;;9.50;1.10;;;7.30;99.90;;;;;;5023998;28;20127;-83
2022/12/26 11:08:58;;;;;;;7.07;1.08;;;7.30;99.90;;;;;;5022049;28;20073;-84
2022/12/26 11:11:44;;;;;;;4.50;0.85;;;7.30;99.90;;;;;;5009073;28;20041;-85
2022/12/26 11:14:24;;;;;;;9.80;1.17;;;7.30;99.90;;;;;;5017980;28;20100;-83
2022/12/26 11:16:51;;;;;;;8.27;0.95;;;7.40;99.90;;;;;;5015600;28;20157;-84
2022/12/26 11:19:40;;;;;;;;;;;7.30;99.90;;;;;;5001126;28;20038;-84
2022/12/26 11:22:25;;;;;;;11.48;1.33;;;7.40;99.90;;;;;;5021613;28;20285;-84
2022/12/26 11:25:09;;;;;;;7.88;1.92;;;7.30;99.90;;;;;;5013443;28;20122;-83
2022/12/26 11:27:37;;;;;;;6.25;1.23;;;7.40;99.90;;;;;;5009736;28;20048;-84
2022/12/26 11:30:31;;;;;;;6.07;1.20;;;7.40;99.90;;;;;;4999169;28;20405;-83
2022/12/26 11:33:09;;;;;;;6.05;1.20;;;7.50;99.90;;;;;;5012574;28;20137;-83
2022/12/26 11:35:36;;;;;;;5.60;1.15;;;7.60;99.90;;;;;;5018709;28;20037;-84
2022/12/26 11:38:33;;;;;;;4.72;0.90;;;7.60;99.90;;;;;;5012202;28;20038;-83
2022/12/26 11:44:02;;;;;;;11.80;1.20;;;7.50;99.90;;;;;;5015279;28;20052;-83
2022/12/26 11:46:35;;;;;;;9.98;1.20;;;7.40;99.90;;;;;;5013641;28;20148;-84
2022/12/26 11:49:02;;;;;;;10.02;1.48;;;7.30;99.90;;;;;;5001423;28;20052;-84
2022/12/26 11:51:40;;;;;;;8.18;1.38;;;7.20;99.90;;;;;;5001657;28;20095;-84
2022/12/26 11:54:34;;;;;;;9.57;1.42;;;7.20;99.90;;;;;;5016738;28;20034;-82
2022/12/26 11:57:07;;;;;;;13.23;1.45;;;7.20;99.90;;;;;;5006599;28;20050;-85
2022/12/26 11:59:32;;;;;;;7.15;1.65;;;7.20;99.90;;;;;;5002389;28;20060;-87
2022/12/26 12:02:31;;;;;;;12.63;1.40;;;7.30;99.90;;;;;;5000238;28;20042;-84
2022/12/26 12:05:01;;;;;;;11.27;1.15;;;7.20;99.90;;;;;;4983633;28;20295;-86
2022/12/26 12:08:02;;;;;;;10.52;1.40;;;7.20;99.90;;;;;;5000681;28;20125;-84
2022/12/26 12:10:48;;;;;;;10.80;1.70;;;7.30;99.90;;;;;;5026950;28;20141;-86
2022/12/26 12:13:57;;;;;;;7.13;1.25;;;7.30;99.90;;;;;;5000689;28;20042;-87
2022/12/26 12:16:32;;;;;;;8.85;1.67;;;7.30;99.90;;;;;;4899522;28;1123452;-86
2022/12/26 12:19:15;;;;;;;8.48;1.60;;;7.30;99.90;;;;;;5009482;28;20063;-83
2022/12/26 12:21:55;;;;;;;6.85;1.23;;;7.30;99.90;;;;;;5022545;28;20094;-87
2022/12/26 12:24:33;;;;;;;11.57;1.83;;;7.30;99.90;;;;;;5006256;28;20121;-88
2022/12/26 12:27:08;;;;;;;12.80;2.05;;;7.30;99.90;;;;;;5014845;28;20119;-86
2022/12/26 12:30:08;;;;;;;10.65;1.58;;;7.30;99.90;;;;;;4996921;28;20401;-85
2022/12/26 12:32:53;;;;;;;9.27;1.83;;;7.30;99.90;;;;;;4995367;28;20041;-87
2022/12/26 12:35:39;;;;;;;7.72;1.30;;;7.40;99.90;;;;;;4998816;28;20052;-87
2022/12/26 12:38:23;;;;;;;13.55;1.50;;;7.50;99.90;;;;;;5000214;28;20112;-88
2022/12/26 12:41:07;;;;;;;11.48;1.60;;;7.50;99.90;;;;;;5017681;28;20038;-86
2022/12/26 12:44:02;;;;;;;9.18;1.50;;;7.60;99.90;;;;;;5023297;28;20049;-87
2022/12/26 12:46:52;;;;;;;14.23;2.80;;;7.90;99.90;;;;;;5016598;28;20053;-89
2022/12/26 12:49:39;;;;;;;8.02;2.00;;;8.00;99.90;;;;;;5007791;28;20041;-92
2022/12/26 12:52:32;;;;;;;16.77;2.25;;;8.00;99.90;;;;;;5020435;28;20030;-89
2022/12/26 12:55:10;;;;;;;10.40;2.03;;;7.80;99.90;;;;;;5006480;28;20102;-89
2022/12/26 12:57:52;;;;;;;14.05;1.85;;;7.90;99.90;;;;;;5004169;28;20041;-89
2022/12/26 13:00:20;;;;;;;7.25;1.65;;;8.00;99.90;;;;;;5024468;28;20405;-88
2022/12/26 13:02:56;;;;;;;12.50;2.13;;;7.90;99.90;;;;;;5007465;28;20038;-90
2022/12/26 13:05:41;;;;;;;6.90;1.40;;;7.90;99.90;;;;;;5003697;28;20052;-92
2022/12/26 13:08:11;;;;;;;11.30;1.40;;;7.80;99.90;;;;;;5005676;28;20045;-91
2022/12/26 13:10:48;;;;;;;11.02;2.13;;;7.70;99.90;;;;;;4998108;28;20130;-91
2022/12/26 13:13:21;;;;;;;7.97;1.50;;;7.60;99.90;;;;;;5013171;28;20034;-90
2022/12/26 13:15:51;;;;;;;10.35;1.42;;;7.50;99.90;;;;;;5014331;28;20061;-89
2022/12/26 13:18:21;;;;;;;7.03;1.50;;;7.50;99.90;;;;;;5018003;28;20510;-90
2022/12/26 13:20:50;;;;;;;6.55;1.20;;;7.50;99.90;;;;;;5023761;28;20044;-90
2022/12/26 13:26:34;;;;;;;9.60;2.25;;;7.50;99.90;;;;;;5016568;28;20088;-90
2022/12/26 13:29:16;;;;;;;5.70;1.42;;;7.60;99.90;;;;;;5006411;28;20105;-90
2022/12/26 13:31:43;;;;;;;12.30;1.52;;;7.70;99.90;;;;;;5000496;28;20065;-92
2022/12/26 13:34:14;;;;;;;8.52;1.50;;;7.70;99.90;;;;;;4980129;28;20053;-83
2022/12/26 13:36:43;;;;;;;15.98;2.10;;;7.60;99.90;;;;;;4995659;28;20060;-83
2022/12/26 13:39:38;;;;;;;21.10;2.28;;;7.70;99.90;;;;;;5000301;28;20045;-80
2022/12/26 13:44:54;;;;;;;12.60;1.45;;;7.60;99.90;;;;;;5022817;28;20049;-81
2022/12/26 13:47:36;;;;;;;11.43;1.92;;;7.60;99.90;;;;;;5018515;28;20085;-80
2022/12/26 13:50:46;;;;;;;9.77;1.50;;;7.50;99.90;;;;;;5016934;28;20125;-80
2022/12/26 13:53:39;;;;;;;6.63;1.10;;;7.50;99.90;;;;;;4934304;28;20083;-80
2022/12/26 13:56:17;;;;;;;8.70;1.40;;;7.40;99.90;;;;;;4986923;28;20037;-80
2022/12/26 13:59:14;;;;;;;11.15;1.73;;;7.40;99.90;;;;;;4997781;28;20045;-80
2022/12/26 14:01:40;;;;;;;11.15;1.65;;;7.40;99.90;;;;;;5000521;28;20034;-81
2022/12/26 14:04:47;;;;;;;10.20;1.57;;;7.50;99.90;;;;;;4996215;28;20045;-80
2022/12/26 14:07:37;;;;;;;6.07;1.50;;;7.50;99.90;;;;;;4973050;28;20640;-80
2022/12/26 14:10:11;;;;;;;15.43;2.28;;;7.60;99.90;;;;;;4996487;28;20046;-82
2022/12/26 14:12:59;;;;;;;7.63;1.45;;;7.60;99.90;;;;;;5013111;28;20041;-81
2022/12/26 14:15:46;;;;;;;7.15;1.38;;;7.50;99.90;;;;;;5012282;28;20585;-80
2022/12/26 14:18:30;;;;;;;10.88;1.50;;;7.50;99.90;;;;;;5012212;28;20049;-81
2022/12/26 14:21:24;;;;;;;10.90;1.80;;;7.40;99.90;;;;;;5001889;28;20042;-81
2022/12/26 14:24:07;;;;;;;8.85;2.08;;;7.40;99.90;;;;;;5017294;28;20053;-81
2022/12/26 14:26:42;;;;;;;7.68;1.60;;;7.30;99.90;;;;;;5008017;28;20060;-81
2022/12/26 14:29:19;;;;;;;11.27;1.70;;;7.30;99.90;;;;;;5015536;28;20049;-81
2022/12/26 14:31:50;;;;;;;;;;;7.30;99.90;;;;;;5024125;28;20030;-82
2022/12/26 14:34:24;;;;;;;9.95;1.75;;;7.30;99.90;;;;;;5006727;28;19964;-81
2022/12/26 14:37:00;;;;;;;12.13;1.80;;;7.20;99.90;;;;;;5027031;28;20038;-81
2022/12/26 14:40:02;;;;;;;9.48;1.80;;;7.20;99.90;;;;;;5018746;28;20513;-82
2022/12/26 14:45:29;;;;;;;7.78;1.45;;;6.90;99.90;;;;;;5007565;28;20056;-81
2022/12/26 14:47:55;;;;;;;10.25;1.35;;;6.80;99.90;;;;;;5014815;28;20077;-79
2022/12/26 14:50:43;;;;;;;12.57;1.70;;;6.70;99.90;;;;;;4981452;28;20093;-80
2022/12/26 14:53:27;;;;;;;6.90;1.40;;;6.60;99.90;;;;;;5015461;28;20049;-79
2022/12/26 14:55:54;;;;;;;8.77;1.85;;;6.60;99.90;;;;;;5021303;28;20137;-79
2022/12/26 14:58:47;;;;;;;12.80;1.63;;;6.60;99.90;;;;;;5001823;28;20037;-80
2022/12/26 15:01:16;;;;;;;8.05;1.52;;;6.50;99.90;;;;;;4999314;28;20053;-80
2022/12/26 15:04:18;;;;;;;8.00;1.33;;;6.50;99.90;;;;;;5025743;28;20049;-78
2022/12/26 15:06:46;;;;;;;12.20;1.60;;;6.50;99.90;;;;;;5012422;28;20049;-78
2022/12/26 15:09:44;;;;;;;10.63;1.85;;;6.50;99.90;;;;;;5019015;28;20064;-77
2022/12/26 15:12:41;;;;;;;12.18;2.33;;;6.40;99.90;;;;;;5019942;28;20045;-78
2022/12/26 15:15:21;;;;;;;15.50;1.48;;;6.40;99.90;;;;;;5006957;28;20069;-79
2022/12/26 15:18:37;;;;;;;10.65;1.77;;;6.30;99.90;;;;;;5020402;28;20046;-78
2022/12/26 15:21:03;;;;;;;9.18;1.58;;;6.20;99.90;;;;;;4985158;28;20407;-79
2022/12/26 15:23:54;;;;;;;13.23;1.87;;;6.60;99.90;;;;;;5018555;28;20169;-78
2022/12/26 15:26:35;;;;;;;12.25;2.22;;;6.10;99.90;;;;;;5003369;28;20180;-79
2022/12/26 15:29:19;;;;;;;4.97;1.27;;;6.10;99.90;;;;;;5020873;28;20037;-79
2022/12/26 15:31:48;;;;;;;7.47;1.48;;;6.10;99.90;;;;;;5004562;28;20121;-79
2022/12/26 15:34:42;;;;;;;9.40;1.50;;;6.00;99.90;;;;;;5008706;28;20053;-78
2022/12/26 15:37:35;;;;;;;11.23;1.73;;;5.90;99.90;;;;;;5015015;28;20231;-78
2022/12/26 15:40:10;;;;;;;11.85;1.83;;;5.90;99.90;;;;;;5014732;28;20436;-79